Weather observations for the past three days for
Eastern Oregon Regional Airport at Pendleton
| Date | Time (pdt) | Wind (kph) | Vis. (km) | Weather | Sky Cond. | Temperature (ºC) | Relative Humidity | Wind Chill (°C) | Heat Index (°C) | Pressure | Precipitation (cm) | ||||||
|---|---|---|---|---|---|---|---|---|---|---|---|---|---|---|---|---|---|
| Air | Dwpt | 6 hour | altimeter (cm) | sea level (mb) | 1 hr | 3 hr | 6 hr | ||||||||||
| Max. | Min. | ||||||||||||||||
| 02 | 10:53 | NW 19 | 16.09 | Fair | CLR | 21.7 | 6.7 | 21.7 | 11.7 | 38% | 76.07 | 1013.0 | |||||
| 02 | 09:53 | W 15 | 16.09 | Fair | CLR | 20.6 | 7.2 | 42% | 76.07 | 1012.9 | |||||||
| 02 | 08:53 | NW 15 | 16.09 | Fair | CLR | 17.8 | 7.2 | 50% | 76.07 | 1013.0 | |||||||
| 02 | 07:53 | NW 11 | 16.09 | Fair | CLR | 16.1 | 6.7 | 54% | 76.05 | 1012.7 | |||||||
| 02 | 06:53 | Calm | 16.09 | Fair | CLR | 13.9 | 3.3 | 49% | 76.02 | 1012.3 | |||||||
| 02 | 05:53 | NE 7 | 16.09 | Fair | CLR | 13.3 | 2.8 | 49% | 76 | 1011.8 | |||||||
| 02 | 04:53 | NE 11 | 16.09 | Fair | CLR | 12.8 | 2.8 | 16.1 | 12.2 | 51% | 75.97 | 1011.7 | |||||
| 02 | 03:53 | NE 6 | 16.09 | Fair | CLR | 13.9 | 2.2 | 45% | 76 | 1011.6 | |||||||
| 02 | 02:53 | E 6 | 16.09 | Fair | CLR | 13.3 | 3.3 | 51% | 75.97 | 1011.6 | |||||||
| 02 | 01:53 | E 6 | 16.09 | Fair | CLR | 13.9 | 3.3 | 49% | 76 | 1011.7 | |||||||
| 02 | 00:53 | E 13 | 16.09 | Fair | CLR | 13.3 | 3.9 | 53% | 76 | 1011.8 | |||||||
| 01 | 23:53 | E 11 | 16.09 | Fair | CLR | 14.4 | 3.3 | 48% | 76 | 1011.8 | |||||||
| 01 | 22:53 | E 17 | 16.09 | Fair | CLR | 14.4 | 6.1 | 26.1 | 14.4 | 58% | 76 | 1011.8 | |||||
| 01 | 21:53 | E 19 | 16.09 | Fair | CLR | 16.1 | 6.7 | 54% | 76 | 1011.8 | |||||||
| 01 | 20:53 | E 20 | 16.09 | Fair | CLR | 17.8 | 6.7 | 48% | 75.97 | 1011.8 | |||||||
| 01 | 19:53 | NE 22 | 16.09 | Fair | CLR | 19.4 | 6.1 | 42% | 75.97 | 1011.7 | |||||||
| 01 | 18:53 | N 13 | 16.09 | Fair | CLR | 21.7 | 8.3 | 42% | 75.97 | 1012.0 | |||||||
| 01 | 17:53 | NE 24 | 16.09 | Fair | CLR | 23.9 | 6.1 | 32% | 25 | 76 | 1012.2 | ||||||
| 01 | 16:53 | NE 22 | 16.09 | Fair | CLR | 26.1 | 5 | 26.7 | 22.8 | 26% | 26 | 76.02 | 1012.3 | ||||
| 01 | 15:53 | NE 20 | 16.09 | Fair | CLR | 26.7 | 5 | 25% | 26 | 76.05 | 1012.9 | ||||||
| 01 | 14:53 | NE 17 | 16.09 | Fair | CLR | 25.6 | 4.4 | 26% | 25 | 76.12 | 1013.9 | ||||||
| 01 | 13:53 | W 15 | 16.09 | Fair | CLR | 26.7 | 2.8 | 21% | 26 | 76.17 | 1014.3 | ||||||
| 01 | 12:53 | Vrbl 6 | 16.09 | Fair | CLR | 25.6 | 3.3 | 24% | 25 | 76.2 | 1014.9 | ||||||
| 01 | 11:53 | Calm | 16.09 | Fair | CLR | 24.4 | 2.2 | 23% | 25 | 76.25 | 1015.5 | ||||||
| 01 | 10:53 | N 7 | 16.09 | Fair | CLR | 23.3 | 3.9 | 23.3 | 6.7 | 28% | 76.28 | 1016.0 | |||||
| 01 | 09:53 | Calm | 16.09 | Fair | CLR | 20.6 | 3.3 | 32% | 76.3 | 1016.3 | |||||||
| 01 | 08:53 | Calm | 16.09 | Fair | CLR | 17.2 | 3.3 | 40% | 76.33 | 1016.7 | |||||||
| 01 | 07:53 | SE 7 | 16.09 | Fair | CLR | 13.9 | 4.4 | 53% | 76.33 | 1016.6 | |||||||
| 01 | 06:53 | E 9 | 16.09 | Fair | CLR | 10.6 | 4.4 | 66% | 76.3 | 1016.2 | |||||||
| 01 | 05:53 | SE 13 | 16.09 | Fair | CLR | 7.2 | 3.3 | 77% | 5 | 76.28 | 1016.0 | ||||||
| 01 | 04:53 | SE 17 | 16.09 | Fair | CLR | 7.8 | 3.9 | 11.1 | 7.2 | 77% | 5 | 76.28 | 1016.1 | ||||
| 01 | 03:53 | E 9 | 16.09 | Fair | CLR | 8.3 | 3.9 | 74% | 7 | 76.3 | 1016.2 | ||||||
| 01 | 02:53 | SE 11 | 16.09 | Fair | CLR | 8.3 | 3.9 | 74% | 7 | 76.28 | 1016.0 | ||||||
| 01 | 01:53 | SE 17 | 16.09 | Fair | CLR | 9.4 | 4.4 | 71% | 7 | 76.3 | 1016.4 | ||||||
| 01 | 00:53 | SE 15 | 16.09 | Fair | CLR | 9.4 | 5 | 74% | 7 | 76.3 | 1016.5 | ||||||
| 30 | 23:53 | SE 15 | 16.09 | Fair | CLR | 9.4 | 5 | 74% | 7 | 76.3 | 1016.5 | ||||||
| 30 | 22:53 | E 11 | 16.09 | Fair | CLR | 10 | 4.4 | 23.9 | 10 | 68% | 9 | 76.3 | 1016.5 | ||||
| 30 | 21:53 | S 15 | 16.09 | Fair | CLR | 13.9 | 3.9 | 51% | 76.33 | 1016.7 | |||||||
| 30 | 20:53 | NE 13 | 16.09 | Fair | CLR | 13.3 | 3.3 | 51% | 76.3 | 1016.4 | |||||||
| 30 | 19:53 | NE 15 | 16.09 | Fair | CLR | 16.7 | 4.4 | 44% | 76.28 | 1016.1 | |||||||
| 30 | 18:53 | NE 13 | 16.09 | Fair | CLR | 21.7 | 0.6 | 25% | 76.28 | 1016.0 | |||||||
| 30 | 17:53 | N 15 | 16.09 | Fair | CLR | 22.8 | 2.8 | 27% | 76.28 | 1016.2 | |||||||
| 30 | 16:53 | N 13 | 16.09 | Fair | CLR | 23.9 | 3.3 | 23.9 | 17.8 | 26% | 25 | 76.3 | 1016.3 | ||||
| 30 | 15:53 | Vrbl 9 | 16.09 | Fair | CLR | 23.3 | 2.2 | 25% | 76.33 | 1016.8 | |||||||
| 30 | 14:53 | NE 15 | 16.09 | Fair | CLR | 23.3 | 2.8 | 26% | 76.4 | 1017.6 | |||||||
| 30 | 13:53 | N 13 | 16.09 | Fair | CLR | 22.2 | 3.3 | 29% | 76.43 | 1018.1 | |||||||
| 30 | 12:53 | N 11 | 16.09 | Fair | CLR | 21.7 | 3.9 | 31% | 76.45 | 1018.6 | |||||||
| 30 | 11:53 | N 7 | 16.09 | Fair | CLR | 20.6 | 5 | 36% | 76.53 | 1019.5 | |||||||
| 30 | 10:53 | NW 9 | 16.09 | Fair | CLR | 18.3 | 4.4 | 18.3 | 4.4 | 40% | 76.58 | 1020.1 | |||||
| 30 | 09:53 | W 9 | 16.09 | Fair | CLR | 15.6 | 4.4 | 48% | 76.61 | 1020.7 | |||||||
| 30 | 08:53 | Vrbl 6 | 16.09 | Fair | CLR | 13.9 | 5 | 55% | 76.63 | 1021.1 | |||||||
| 30 | 07:53 | SE 11 | 16.09 | Fair | CLR | 9.4 | 3.3 | 66% | 8 | 76.63 | 1021.2 | ||||||
| 30 | 06:53 | SE 11 | 16.09 | Fair | CLR | 7.2 | 3.3 | 77% | 5 | 76.61 | 1020.8 | ||||||
| 30 | 05:53 | E 13 | 16.09 | Fair | CLR | 4.4 | 2.2 | 86% | 2 | 76.58 | 1020.4 | ||||||
| 30 | 04:53 | SE 6 | 16.09 | Fair | CLR | 7.2 | 2.8 | 12.8 | 6.1 | 74% | 76.58 | 1020.4 | |||||
| 30 | 03:53 | S 11 | 16.09 | Fair | CLR | 7.2 | 2.8 | 74% | 5 | 76.58 | 1020.3 | ||||||
| 30 | 02:53 | SE 19 | 16.09 | Fair | CLR | 7.8 | 3.3 | 73% | 5 | 76.58 | 1020.3 | ||||||
| 30 | 01:53 | SE 19 | 16.09 | Fair | CLR | 8.3 | 3.9 | 74% | 6 | 76.61 | 1020.6 | ||||||
| 30 | 00:53 | SE 17 | 16.09 | Fair | CLR | 8.3 | 4.4 | 77% | 6 | 76.61 | 1020.8 | ||||||
| 29 | 23:53 | E 11 | 16.09 | Fair | CLR | 7.8 | 3.9 | 77% | 6 | 76.61 | 1020.8 | ||||||
| 29 | 22:53 | S 6 | 16.09 | Fair | CLR | 12.2 | 5 | 20 | 11.1 | 62% | 76.61 | 1020.6 | |||||
| 29 | 21:53 | Calm | 16.09 | Fair | CLR | 12.2 | 2.8 | 53% | 76.61 | 1020.8 | |||||||
| 29 | 20:53 | NE 13 | 16.09 | Fair | CLR | 12.2 | 4.4 | 59% | 76.58 | 1020.6 | |||||||
| 29 | 19:53 | N 11 | 16.09 | Fair | CLR | 15 | 6.1 | 56% | 76.56 | 1020.2 | |||||||
| 29 | 18:53 | N 13 | 16.09 | Fair | CLR | 18.9 | 5 | 40% | 76.56 | 1020.0 | |||||||
| 29 | 17:53 | NE 20 | 16.09 | Fair | CLR | 19.4 | 3.9 | 36% | 76.56 | 1020.1 | |||||||
| 29 | 16:53 | N 22 | 16.09 | Fair | CLR | 19.4 | 3.3 | 20 | 13.3 | 35% | 76.56 | 1020.2 | |||||
| 29 | 15:53 | N 13 G 28 | 16.09 | Fair | CLR | 20 | 2.8 | 32% | 76.58 | 1020.4 | |||||||
| 29 | 14:53 | N 17 | 16.09 | Fair | CLR | 19.4 | 4.4 | 37% | 76.63 | 1020.9 | |||||||
| 29 | 13:53 | W 7 | 16.09 | Fair | CLR | 18.3 | 3.9 | 39% | 76.66 | 1021.3 | |||||||
| 29 | 12:53 | Vrbl 9 | 16.09 | Fair | CLR | 16.1 | 2.8 | 41% | 76.71 | 1022.0 | |||||||
| 29 | 11:53 | NW 13 | 16.09 | Fair | CLR | 16.1 | 2.2 | 39% | 76.73 | 1022.3 | |||||||
| Date | Time (pdt) | Wind (kph) | Vis. (km) | Weather | Sky Cond. | Air | Dwpt | Max. | Min. | Relative Humidity | Wind Chill (°C) | Heat Index (°C) | altimeter (cm) | sea level (mb) | 1 hr | 3 hr | 6 hr |
| 6 hour | |||||||||||||||||
| Temperature (ºC) | Pressure | Precipitation (cm) | |||||||||||||||